TR-0009 weather

Çardak Highway Strip
Denizli Province, Turkey

Public forecast

Using degrees Celsius for public forecast. Weather courtesy of forecast.io.

Closest aviation weather report (METAR) to Çardak Highway Strip

Closest report is Çardak Airport, 3.9 nm (7.3 km) SE. Retrieved 2020/02/17 14:50 UTC (17 minutes ago):

LTAY 171450Z 08011KT CAVOK 10/01 Q1021

Closest aviation forecast (TAF) to Çardak Highway Strip

Closest forecast is Süleyman Demirel International Airport, 34.7 nm (64.2 km) E. Retrieved 2020/02/17 12:00 UTC (3 hours ago):

TAF LTFC 171040Z 1712/1812 07012KT CAVOK BECMG 1715/1719 VRB02KT